Annada, MO (63330)

7:03 AM CST on February 23, 2017 (GMT -0600)
N2RAM | | Change Station
Active Advisory: Dense Fog Advisory

Elev 755 ft 39.22 °N, 91.04 °W | Updated 1 second ago

Overcast
Overcast
50.0 °F
Feels Like 50.0 °F
N
0.0
Wind Variable Wind from ESE
Gusts 0.0 mph

Today
High -- | Low -- °F
--% Chance of Precip.
Yesterday
High -- | Low -- °F
Precip. -- in
Pressure 29.72 in
Visibility 10.0 miles
Clouds Clear
Dew Point 50 °F
Humidity 99%
Rainfall 0.00 in
Snow Depth Not available.
6:44 AM 5:49 PM
Waning Crescent, 10% visible
METAR KPPQ 231255Z AUTO 04004KT 10SM CLR 09/08 A2972 RMK AO2 T00880079
Pressure 29.72 in
Visibility 10.0 miles
Clouds Clear
Dew Point 50 °F
Humidity 99%
Rainfall 0.00 in
Snow Depth Not available.
6:44 AM 5:49 PM
Waning Crescent, 10% visible
METAR KPPQ 231255Z AUTO 04004KT 10SM CLR 09/08 A2972 RMK AO2 T00880079

Get Your Daily Forecast Email!

Thanks for signing up!

Be on the lookout for a verification email in your inbox.

You'll start receiving the daily forecast at 8 AM.

×

10-Day Weather Forecast

Almanac

Astronomy

Feb. 23, 2017 Rise Set
Actual Time
Civil Twilight
Nautical Twilight
Astronomical Twilight
Moon
Length of Visible Light
Length of Day
Tomorrow will be .
, % of the Moon is Illuminated

Today's Extremes

State Highs State Lows

Community

WunderPhotos

Upload Photos

1,962,540 photos uploaded!

WunderBlog® & News

Nearby

Air Quality

  Air Quality AQ Index Pollutant
Not available.

Snow Depth

Station Depth Elevation

Earthquake Activity

City Distance Mag. Time & Date
Minimum magnitude displayed is 2.5.

Coastal Water Temperatures

Place Temperature

Stations

Nearby Weather Stations

Station Location Temp. Windchill Dew Point Humidity Wind Precip. Elev Updated Type
                   

Watches & Warnings

Dense Fog Advisory
Issued: 5:52 AM CST Feb. 23, 2017 – National Weather Service

... Dense fog advisory in effect until 9 am CST this morning...

The National Weather Service in Saint Louis has issued a dense
fog advisory, which is in effect until 9 am CST this morning.

* Timing... dense fog to persist this morning.

* Visibilities... visibilities of one-quarter mile or less at
times are expected.

* Impacts... rapid changes in visibility will cause hazardous
driving conditions.

Precautionary/preparedness actions...

A dense fog advisory is issued when dense fog will substantially
reduce visibilities, to one-quarter mile or less, resulting in
hazardous driving conditions in many areas. Motorists are advised
to use caution and slow down, as objects on and near roadways
will be seen only at close range.



Kd